Time;durP1;ratioP1;P1;durP2;ratioP2;P2;SDS_P1;SDS_P2;PMS_P1;PMS_P2;Temp;Humidity;BMP_temperature;BMP_pressure;BME280_temperature;BME280_humidity;BME280_pressure;Samples;Min_cycle;Max_cycle;Signal;HPM_P1;HPM_P2
2021/10/08 00:01:23;;;;;;;3.85;2.28;;;;;;;20.52;51.38;102954.25;4995271;28;20152;-60
2021/10/08 00:03:48;;;;;;;4.25;2.22;;;;;;;20.50;51.37;102958.78;4994740;28;20455;-59
2021/10/08 00:06:14;;;;;;;5.40;2.33;;;;;;;20.48;51.38;102952.72;4994992;28;20027;-60
2021/10/08 00:08:41;;;;;;;4.85;2.50;;;;;;;20.47;51.50;102956.28;4995302;28;20054;-59
2021/10/08 00:11:06;;;;;;;3.90;2.30;;;;;;;20.46;51.39;102957.25;4994056;28;20027;-60
2021/10/08 00:13:32;;;;;;;4.00;2.30;;;;;;;20.44;51.57;102954.69;4995342;28;20085;-60
2021/10/08 00:15:57;;;;;;;4.10;2.50;;;;;;;20.43;51.21;102960.09;4995293;28;20117;-60
2021/10/08 00:18:22;;;;;;;3.78;2.35;;;;;;;20.43;51.63;102954.78;4994082;28;20026;-60
2021/10/08 00:20:48;;;;;;;3.90;2.30;;;;;;;20.41;51.44;102960.16;4994844;28;20035;-59
2021/10/08 00:23:13;;;;;;;3.67;2.13;;;;;;;20.41;51.44;102959.28;4994697;28;20042;-60
2021/10/08 00:25:39;;;;;;;3.97;2.37;;;;;;;20.40;50.93;102965.56;4994165;28;20429;-59
2021/10/08 00:28:06;;;;;;;3.72;2.20;;;;;;;20.38;51.17;102962.16;4994473;28;20294;-59
2021/10/08 00:30:31;;;;;;;4.53;2.58;;;;;;;20.38;51.31;102964.81;4995039;28;20034;-60
2021/10/08 00:32:56;;;;;;;4.15;2.40;;;;;;;20.36;51.25;102964.00;4994667;28;20374;-61
2021/10/08 00:35:21;;;;;;;4.63;2.00;;;;;;;20.34;51.09;102966.75;4994254;28;20022;-59
2021/10/08 00:37:50;;;;;;;4.57;2.50;;;;;;;20.34;51.29;102969.41;4994045;28;20022;-60
2021/10/08 00:40:21;;;;;;;4.55;2.40;;;;;;;20.33;51.06;102962.41;4994298;28;20046;-60
2021/10/08 00:42:48;;;;;;;3.53;2.08;;;;;;;20.33;51.20;102966.84;4994618;28;20109;-60
2021/10/08 00:45:14;;;;;;;3.85;2.05;;;;;;;20.31;51.25;102964.28;4993676;28;20045;-59
2021/10/08 00:47:39;;;;;;;4.07;2.33;;;;;;;20.30;51.01;102966.06;4994527;28;20018;-60
2021/10/08 00:50:06;;;;;;;5.20;2.30;;;;;;;20.28;50.85;102962.69;4994322;28;20344;-60
2021/10/08 00:52:31;;;;;;;4.13;1.90;;;;;;;20.27;51.07;102968.06;4993440;28;20490;-59
2021/10/08 00:55:03;;;;;;;4.07;2.40;;;;;;;20.27;50.92;102968.06;4994281;28;20121;-60
2021/10/08 00:57:29;;;;;;;3.80;2.00;;;;;;;20.26;50.86;102969.00;4994282;28;20330;-59
2021/10/08 00:59:55;;;;;;;4.00;2.22;;;;;;;20.24;51.02;102970.88;4993601;28;20034;-59
2021/10/08 01:02:25;;;;;;;3.80;2.25;;;;;;;20.23;50.99;102967.34;4994097;28;20026;-60
2021/10/08 01:04:56;;;;;;;4.03;2.17;;;;;;;20.23;51.08;102970.00;4994163;28;20105;-60
2021/10/08 01:07:22;;;;;;;3.67;2.03;;;;;;;20.23;51.04;102961.22;4991789;28;20502;-59
2021/10/08 01:09:47;;;;;;;3.42;2.13;;;;;;;20.22;50.79;102970.09;4994408;28;20038;-61
2021/10/08 01:12:13;;;;;;;4.20;2.37;;;;;;;20.20;50.83;102959.63;4994265;28;20046;-60
2021/10/08 01:14:41;;;;;;;3.35;1.83;;;;;;;20.19;50.85;102965.84;4993839;28;20292;-59
2021/10/08 01:17:21;;;;;;;3.55;2.00;;;;;;;20.20;50.65;102969.34;4994154;28;20058;-59
2021/10/08 01:19:49;;;;;;;3.83;2.03;;;;;;;20.18;50.46;102972.06;4993501;28;20057;-60
2021/10/08 01:22:14;;;;;;;3.67;2.05;;;;;;;20.17;50.75;102975.69;4993821;28;20512;-60
2021/10/08 01:24:40;;;;;;;3.80;1.95;;;;;;;20.16;50.53;102973.13;4994425;28;20038;-61
2021/10/08 01:27:07;;;;;;;3.42;1.80;;;;;;;20.15;50.71;102968.75;4993168;28;20708;-60
2021/10/08 01:29:34;;;;;;;3.42;1.98;;;;;;;20.13;50.66;102968.84;4994063;28;20449;-60
2021/10/08 01:32:00;;;;;;;3.55;2.13;;;;;;;20.12;50.69;102969.75;4994014;28;20031;-60
2021/10/08 01:34:34;;;;;;;3.38;1.98;;;;;;;20.11;50.55;102971.56;4993084;28;20025;-60
2021/10/08 01:36:59;;;;;;;3.42;1.92;;;;;;;20.11;50.73;102970.72;4994157;28;20018;-60
2021/10/08 01:39:24;;;;;;;4.03;2.10;;;;;;;20.09;50.37;102973.47;4993618;28;20053;-60
2021/10/08 01:41:52;;;;;;;3.63;1.90;;;;;;;20.07;50.39;102967.38;4993037;28;20284;-60
2021/10/08 01:44:18;;;;;;;3.30;1.83;;;;;;;20.07;50.55;102971.81;4993306;28;20648;-60
2021/10/08 01:46:43;;;;;;;3.70;1.93;;;;;;;20.06;50.52;102968.34;4993399;28;20026;-60
2021/10/08 01:49:08;;;;;;;3.60;1.98;;;;;;;20.05;50.52;102963.13;4992701;28;20628;-59
2021/10/08 01:51:34;;;;;;;2.75;1.65;;;;;;;20.03;50.60;102965.84;4993692;28;20038;-58
2021/10/08 01:53:59;;;;;;;3.17;1.70;;;;;;;20.02;50.45;102966.78;4993729;28;20076;-60
2021/10/08 01:56:26;;;;;;;3.33;1.77;;;;;;;20.02;50.46;102963.28;4992584;28;20027;-59
2021/10/08 01:58:52;;;;;;;3.03;1.60;;;;;;;20.02;50.35;102968.59;4993585;28;20342;-59
2021/10/08 02:01:17;;;;;;;3.10;1.80;;;;;;;20.02;50.28;102963.28;4993030;28;20038;-59
2021/10/08 02:03:46;;;;;;;2.83;1.57;;;;;;;20.01;50.21;102967.75;4992600;28;20283;-59
2021/10/08 02:06:11;;;;;;;4.53;1.90;;;;;;;20.00;50.23;102971.31;4993193;28;20295;-59
2021/10/08 02:08:37;;;;;;;3.03;1.80;;;;;;;19.97;50.37;102965.34;4993401;28;20023;-60
2021/10/08 02:11:02;;;;;;;2.97;1.70;;;;;;;19.98;50.16;102964.38;4992420;28;20022;-60
2021/10/08 02:13:27;;;;;;;2.85;1.58;;;;;;;19.96;50.16;102964.47;4992146;28;20023;-59
2021/10/08 02:15:53;;;;;;;3.50;1.90;;;;;;;19.96;50.26;102963.63;4993045;28;20038;-60
2021/10/08 02:18:18;;;;;;;3.30;1.90;;;;;;;19.95;50.11;102968.09;4992215;28;20018;-59
2021/10/08 02:20:43;;;;;;;3.30;1.87;;;;;;;19.94;50.14;102963.72;4993324;28;20030;-59
2021/10/08 02:23:10;;;;;;;2.65;1.60;;;;;;;19.95;50.38;102957.50;4992289;28;20355;-58
2021/10/08 02:25:35;;;;;;;3.63;1.88;;;;;;;19.93;50.20;102959.34;4993213;28;20037;-59
2021/10/08 02:28:21;;;;;;;3.08;1.70;;;;;;;19.93;50.14;102964.66;4993059;28;20034;-59
2021/10/08 02:30:47;;;;;;;2.95;1.60;;;;;;;19.91;50.39;102956.78;4992225;28;20042;-60
2021/10/08 02:33:12;;;;;;;3.20;1.80;;;;;;;19.90;50.02;102957.75;4992644;28;20090;-60
2021/10/08 02:35:37;;;;;;;3.42;1.90;;;;;;;19.89;50.16;102953.38;4993052;28;20114;-60
2021/10/08 02:38:03;;;;;;;3.70;2.00;;;;;;;19.88;49.93;102953.47;4991790;28;20029;-60
2021/10/08 02:40:29;;;;;;;3.38;1.90;;;;;;;19.88;49.95;102951.66;4992798;28;20077;-59
2021/10/08 02:42:54;;;;;;;2.85;1.63;;;;;;;19.88;50.07;102956.13;4992925;28;20034;-59
2021/10/08 02:45:20;;;;;;;3.23;1.70;;;;;;;19.89;50.04;102958.69;4991831;28;20030;-59
2021/10/08 02:47:45;;;;;;;3.33;1.77;;;;;;;19.89;50.02;102956.03;4992925;28;20292;-60
2021/10/08 02:50:10;;;;;;;3.40;1.80;;;;;;;19.87;49.86;102957.91;4992861;28;20096;-59
2021/10/08 02:52:39;;;;;;;3.00;1.70;;;;;;;19.86;50.08;102960.66;4992015;28;20042;-60
2021/10/08 02:55:06;;;;;;;3.80;1.65;;;;;;;19.86;49.96;102964.13;4992569;28;20022;-59
2021/10/08 02:57:51;;;;;;;3.20;1.70;;;;;;;19.85;49.80;102958.94;4993823;28;20050;-60
2021/10/08 03:00:17;;;;;;;3.10;1.50;;;;;;;19.83;49.82;102956.38;4995248;28;20060;-60
2021/10/08 03:02:42;;;;;;;3.08;1.67;;;;;;;19.84;49.57;102960.72;4996868;28;20120;-59
2021/10/08 03:05:09;;;;;;;3.92;1.88;;;;;;;19.84;49.92;102965.19;4996551;28;20069;-60
2021/10/08 03:07:34;;;;;;;3.03;1.70;;;;;;;19.82;49.93;102964.38;4996122;28;20026;-59
2021/10/08 03:10:00;;;;;;;3.13;1.80;;;;;;;19.80;49.65;102959.19;4996766;28;20029;-60
2021/10/08 03:12:26;;;;;;;3.17;1.80;;;;;;;19.79;49.77;102960.13;4995331;28;20030;-60
2021/10/08 03:14:51;;;;;;;3.17;1.83;;;;;;;19.78;49.65;102957.56;4996463;28;20475;-59
2021/10/08 03:17:17;;;;;;;2.80;1.70;;;;;;;19.77;49.73;102958.50;4996434;28;20030;-59
2021/10/08 03:19:43;;;;;;;2.97;1.65;;;;;;;19.78;49.82;102957.56;4995898;28;20096;-59
2021/10/08 03:22:08;;;;;;;3.03;1.63;;;;;;;19.76;49.62;102960.31;4996298;28;20470;-61
2021/10/08 03:24:34;;;;;;;3.42;1.70;;;;;;;19.77;49.53;102963.78;4996461;28;20027;-60
2021/10/08 03:26:59;;;;;;;2.90;1.60;;;;;;;19.77;49.36;102963.78;4995598;28;20025;-60
2021/10/08 03:29:24;;;;;;;3.30;1.67;;;;;;;19.75;49.39;102971.78;4996239;28;20089;-60
2021/10/08 03:31:50;;;;;;;2.83;1.50;;;;;;;19.74;49.49;102967.41;4996411;28;20502;-60
2021/10/08 03:34:15;;;;;;;3.38;1.67;;;;;;;19.74;49.42;102967.41;4995369;28;20026;-59
2021/10/08 03:39:10;;;;;;;2.42;1.45;;;;;;;19.71;49.48;102965.81;4995753;28;20093;-59
2021/10/08 03:41:38;;;;;;;3.33;1.70;;;;;;;19.71;49.46;102967.59;4995107;28;20026;-59
2021/10/08 03:44:04;;;;;;;2.65;1.50;;;;;;;19.70;49.43;102965.91;4995910;28;20038;-59
2021/10/08 03:46:37;;;;;;;3.03;1.75;;;;;;;19.70;49.61;102973.84;4996014;28;20018;-58
2021/10/08 03:51:33;;;;;;;3.22;1.67;;;;;;;19.67;49.52;102969.56;4995431;28;20066;-60
2021/10/08 03:54:02;;;;;;;2.97;1.70;;;;;;;19.68;49.48;102973.06;4994591;28;20026;-60
2021/10/08 03:56:28;;;;;;;2.72;1.38;;;;;;;19.68;49.37;102973.06;4993942;28;20034;-60
2021/10/08 03:58:58;;;;;;;2.95;1.63;;;;;;;19.67;49.25;102966.91;4994727;28;20105;-61
2021/10/08 04:01:23;;;;;;;3.13;1.80;;;;;;;19.65;49.42;102965.31;4994118;28;20498;-59
2021/10/08 04:03:49;;;;;;;3.50;1.55;;;;;;;19.65;49.59;102973.25;4993815;28;20041;-59
2021/10/08 04:06:14;;;;;;;4.05;1.60;;;;;;;19.65;49.54;102974.09;4994161;28;20169;-59
2021/10/08 04:08:40;;;;;;;2.50;1.45;;;;;;;19.65;49.42;102973.25;4993329;28;20431;-59
2021/10/08 04:11:05;;;;;;;2.78;1.58;;;;;;;19.64;49.40;102971.50;4994281;28;20026;-59
2021/10/08 04:13:31;;;;;;;2.72;1.60;;;;;;;19.63;49.42;102968.03;4994421;28;20129;-59
2021/10/08 04:15:56;;;;;;;3.30;1.58;;;;;;;19.63;49.18;102972.44;4993486;28;20479;-59
2021/10/08 04:18:21;;;;;;;3.03;1.60;;;;;;;19.62;49.14;102974.25;4994034;28;20054;-59
2021/10/08 04:20:47;;;;;;;3.10;1.63;;;;;;;19.62;49.48;102981.34;4994125;28;20158;-59
2021/10/08 04:23:13;;;;;;;2.40;1.40;;;;;;;19.61;49.35;102976.97;4992981;28;20030;-60
2021/10/08 04:25:38;;;;;;;2.55;1.40;;;;;;;19.62;49.32;102989.28;4994434;28;20026;-60
2021/10/08 04:28:09;;;;;;;2.67;1.50;;;;;;;19.62;49.39;102991.91;4993985;28;20019;-60
2021/10/08 04:30:35;;;;;;;3.10;1.70;;;;;;;19.61;49.29;102990.19;4993558;28;20022;-61
2021/10/08 04:33:01;;;;;;;3.13;1.60;;;;;;;19.60;49.23;102992.00;4994273;28;20105;-60
2021/10/08 04:35:26;;;;;;;3.03;1.60;;;;;;;19.60;49.15;102989.34;4993954;28;20084;-61
2021/10/08 04:37:51;;;;;;;3.03;1.67;;;;;;;19.60;49.35;102991.13;4993165;28;20077;-60
2021/10/08 04:40:17;;;;;;;3.47;1.70;;;;;;;19.60;49.26;102991.13;4993824;28;20034;-59
2021/10/08 04:42:42;;;;;;;3.33;1.58;;;;;;;19.58;49.16;103001.78;4994104;28;20351;-60
2021/10/08 04:45:08;;;;;;;2.93;1.47;;;;;;;19.58;49.32;103001.78;4992754;28;20026;-60
2021/10/08 04:47:33;;;;;;;2.97;1.50;;;;;;;19.58;49.40;102991.19;4993755;28;20783;-59
2021/10/08 04:49:59;;;;;;;2.75;1.48;;;;;;;19.57;49.12;103002.75;4993815;28;20030;-59
2021/10/08 04:52:24;;;;;;;3.08;1.50;;;;;;;19.56;49.12;102990.44;4958293;28;1012427;-59
2021/10/08 04:54:58;;;;;;;3.13;1.60;;;;;;;19.55;49.13;102992.25;4994985;28;20084;-60
2021/10/08 04:57:23;;;;;;;2.78;1.40;;;;;;;19.55;49.18;102991.38;4994555;28;20338;-60
2021/10/08 04:59:49;;;;;;;2.97;1.50;;;;;;;19.54;48.92;102984.38;4993907;28;20030;-60
2021/10/08 05:02:14;;;;;;;2.92;1.60;;;;;;;19.53;49.02;102998.53;4994326;28;20330;-58
2021/10/08 05:04:39;;;;;;;3.30;1.65;;;;;;;19.53;49.08;103003.81;4994407;28;20121;-59
2021/10/08 05:07:04;;;;;;;4.63;1.60;;;;;;;19.53;48.98;102996.75;4993334;28;20026;-60
2021/10/08 05:09:30;;;;;;;3.13;1.50;;;;;;;19.53;48.81;102993.25;4994691;28;20292;-59
2021/10/08 05:11:58;;;;;;;2.53;1.40;;;;;;;19.52;48.97;103002.97;4993588;28;20022;-60
2021/10/08 05:14:23;;;;;;;3.13;1.58;;;;;;;19.52;48.83;103002.13;4994038;28;20539;-59
2021/10/08 05:16:48;;;;;;;4.00;1.83;;;;;;;19.51;49.02;103006.56;4994355;28;20117;-60
2021/10/08 05:19:13;;;;;;;3.17;1.60;;;;;;;19.51;49.04;103005.72;4992720;28;20823;-59
2021/10/08 05:21:39;;;;;;;2.80;1.25;;;;;;;19.52;48.93;103013.56;4993394;28;20282;-60
2021/10/08 05:24:04;;;;;;;2.92;1.33;;;;;;;19.52;49.17;103012.72;4993974;28;20034;-60
2021/10/08 05:26:30;;;;;;;2.95;1.20;;;;;;;19.54;49.29;103018.78;4993051;28;20109;-60
2021/10/08 05:28:55;;;;;;;3.57;1.67;;;;;;;19.62;48.48;103013.91;4993930;28;20038;-60
2021/10/08 05:31:20;;;;;;;2.73;1.50;;;;;;;19.68;49.45;103008.31;4993609;28;20284;-60
2021/10/08 05:33:48;;;;;;;4.18;1.35;;;;;;;19.75;49.95;103009.66;4993069;28;20398;-59
2021/10/08 05:36:13;;;;;;;2.60;1.33;;;;;;;19.82;49.88;103007.59;4993181;28;20057;-61
2021/10/08 05:38:39;;;;;;;3.30;1.33;;;;;;;19.87;49.95;103008.19;4993927;28;20419;-59
2021/10/08 05:41:06;;;;;;;2.92;1.48;;;;;;;19.92;49.74;103013.25;4992665;28;20414;-59
2021/10/08 05:43:34;;;;;;;2.05;1.05;;;;;;;19.98;49.84;103014.69;4993904;28;20030;-61
2021/10/08 05:45:59;;;;;;;2.40;1.25;;;;;;;20.08;49.67;103013.25;4993601;28;20026;-60
2021/10/08 05:48:25;;;;;;;2.45;1.25;;;;;;;20.17;49.44;103022.44;4992802;28;20041;-61
2021/10/08 05:50:50;;;;;;;2.38;1.20;;;;;;;20.24;49.38;103029.13;4993584;28;20395;-60
2021/10/08 05:53:15;;;;;;;3.40;1.40;;;;;;;20.30;49.00;103028.78;4993118;28;20046;-60
2021/10/08 05:55:44;;;;;;;2.28;1.17;;;;;;;20.33;49.36;103022.44;4993021;28;20081;-59
2021/10/08 05:58:09;;;;;;;2.70;1.10;;;;;;;20.41;49.07;103026.38;4993314;28;20031;-60
2021/10/08 06:00:35;;;;;;;2.73;1.23;;;;;;;20.52;47.77;103025.78;4993340;28;20036;-60
2021/10/08 06:03:02;;;;;;;2.50;1.23;;;;;;;20.58;48.39;103025.41;4992699;28;20760;-60
2021/10/08 06:05:28;;;;;;;3.42;1.15;;;;;;;20.63;48.39;103031.31;4993410;28;20148;-61
2021/10/08 06:07:54;;;;;;;3.88;1.42;;;;;;;20.67;48.53;103031.16;4993284;28;20463;-60
2021/10/08 06:10:19;;;;;;;3.35;1.35;;;;;;;20.71;48.41;103036.19;4992234;28;20038;-60
2021/10/08 06:12:44;;;;;;;2.78;1.30;;;;;;;20.72;48.46;103040.53;4993412;28;20026;-60
2021/10/08 06:15:10;;;;;;;2.80;1.50;;;;;;;20.72;48.45;103037.88;4991942;28;20133;-60
2021/10/08 06:17:35;;;;;;;2.20;1.10;;;;;;;20.74;48.55;103037.78;4993049;28;20046;-59
2021/10/08 06:20:00;;;;;;;3.25;1.30;;;;;;;20.70;48.60;103047.72;4993006;28;20030;-60
2021/10/08 06:22:26;;;;;;;3.07;1.20;;;;;;;20.70;48.29;103046.88;4992002;28;20042;-60
2021/10/08 06:24:51;;;;;;;3.40;1.30;;;;;;;20.68;48.59;103046.09;4993312;28;20312;-60
2021/10/08 06:27:20;;;;;;;3.50;1.50;;;;;;;20.63;48.51;103054.28;4993029;28;20609;-60
2021/10/08 06:29:48;;;;;;;3.65;1.52;;;;;;;20.62;48.53;103048.13;4992511;28;20287;-60
2021/10/08 06:32:13;;;;;;;2.92;1.40;;;;;;;20.61;48.66;103056.16;4992750;28;20084;-61
2021/10/08 06:34:38;;;;;;;2.40;1.17;;;;;;;20.63;48.82;103060.44;4993225;28;20034;-59
2021/10/08 06:37:04;;;;;;;3.33;1.40;;;;;;;20.61;48.81;103056.16;4993478;28;20038;-61
2021/10/08 06:39:29;;;;;;;4.28;1.50;;;;;;;20.62;48.64;103056.09;4995871;28;20026;-60
2021/10/08 06:41:54;;;;;;;4.57;1.73;;;;;;;20.68;48.48;103052.28;4994864;28;20030;-61
2021/10/08 06:44:19;;;;;;;2.97;1.40;;;;;;;20.75;48.26;103053.59;4993473;28;20766;-61
2021/10/08 06:46:47;;;;;;;2.95;1.35;;;;;;;20.82;48.01;103054.97;4994383;28;20034;-61
2021/10/08 06:49:12;;;;;;;3.70;1.60;;;;;;;20.92;47.78;103057.06;4992961;28;20137;-60
2021/10/08 06:51:38;;;;;;;3.47;1.65;;;;;;;20.96;47.50;103056.78;4994477;28;20042;-61
2021/10/08 06:54:03;;;;;;;3.83;1.53;;;;;;;21.02;47.46;103056.44;4993832;28;20046;-61
2021/10/08 06:56:30;;;;;;;3.67;1.60;;;;;;;21.07;47.49;103057.97;4991847;28;20307;-61
2021/10/08 06:58:58;;;;;;;3.25;1.48;;;;;;;21.15;47.07;103059.22;4992372;28;20054;-61
2021/10/08 07:01:23;;;;;;;3.42;1.70;;;;;;;21.22;46.87;103059.72;4992641;28;20089;-61
2021/10/08 07:03:48;;;;;;;4.10;1.53;;;;;;;21.27;46.73;103060.28;4996222;28;20027;-60
2021/10/08 07:06:17;;;;;;;3.72;1.70;;;;;;;21.29;46.67;103057.56;4992681;28;20299;-61
2021/10/08 07:08:42;;;;;;;3.80;1.67;;;;;;;21.22;46.75;103059.72;4993331;28;20367;-60
2021/10/08 07:11:08;;;;;;;3.53;1.70;;;;;;;21.18;46.91;103066.16;4992902;28;20129;-61
2021/10/08 07:13:33;;;;;;;3.30;1.52;;;;;;;21.12;47.01;103058.56;4992305;28;20018;-61
2021/10/08 07:15:59;;;;;;;3.50;1.45;;;;;;;21.08;47.21;103073.78;4992876;28;20058;-61
2021/10/08 07:18:33;;;;;;;3.33;1.60;;;;;;;21.03;47.11;103070.56;4992649;28;20487;-61
2021/10/08 07:20:59;;;;;;;;;;;;;;;20.97;47.49;103066.47;4993558;28;20046;-62
2021/10/08 07:23:24;;;;;;;4.38;1.48;;;;;;;20.99;47.35;103071.69;4992570;28;19914;-61
2021/10/08 07:25:52;;;;;;;3.67;1.27;;;;;;;20.97;47.57;103076.22;4992509;28;20425;-62
2021/10/08 07:28:19;;;;;;;3.50;1.58;;;;;;;20.94;47.59;103079.06;4992729;28;20030;-61
2021/10/08 07:30:50;;;;;;;3.50;1.50;;;;;;;20.92;47.44;103075.63;4992871;28;20037;-61
2021/10/08 07:33:15;;;;;;;3.55;1.52;;;;;;;20.90;47.54;103077.50;4991475;28;20208;-60
2021/10/08 07:35:41;;;;;;;3.33;1.40;;;;;;;20.87;47.62;103083.88;4992809;28;20160;-61
2021/10/08 07:38:06;;;;;;;3.72;1.50;;;;;;;20.87;47.51;103081.22;4992561;28;20088;-61
2021/10/08 07:40:32;;;;;;;6.10;1.92;;;;;;;20.91;47.56;103079.22;4992351;28;20034;-60
2021/10/08 07:42:57;;;;;;;5.20;1.60;;;;;;;20.98;47.53;103084.09;4992957;28;20473;-61
2021/10/08 07:45:22;;;;;;;2.88;1.50;;;;;;;21.00;47.36;103084.84;4996089;28;20030;-61
2021/10/08 07:47:48;;;;;;;3.65;1.80;;;;;;;20.99;47.07;103085.78;4995732;28;20183;-62
2021/10/08 07:50:14;;;;;;;3.63;1.70;;;;;;;20.97;46.77;103081.53;4996293;28;20029;-61
2021/10/08 07:52:41;;;;;;;4.15;1.52;;;;;;;20.94;46.91;103087.84;4995043;28;20502;-61
2021/10/08 07:55:08;;;;;;;3.75;1.50;;;;;;;20.91;46.92;103090.69;4995078;28;20512;-60
2021/10/08 07:57:34;;;;;;;3.90;1.70;;;;;;;20.92;46.83;103086.22;4995894;28;20027;-60
2021/10/08 08:00:00;;;;;;;3.08;1.55;;;;;;;20.92;47.13;103088.88;4995884;28;20034;-61
2021/10/08 08:02:28;;;;;;;3.08;1.50;;;;;;;20.90;46.87;103090.75;4995473;28;20056;-61
2021/10/08 08:04:55;;;;;;;3.53;1.50;;;;;;;20.88;47.01;103090.84;4996257;28;20026;-61
2021/10/08 08:07:20;;;;;;;4.20;1.60;;;;;;;20.87;47.07;103089.16;4995648;28;20022;-61
2021/10/08 08:09:45;;;;;;;5.03;1.60;;;;;;;20.84;47.23;103095.47;4995061;28;20536;-60
2021/10/08 08:12:18;;;;;;;2.63;1.27;;;;;;;20.82;47.36;103097.38;4995239;28;20284;-60
2021/10/08 08:14:46;;;;;;;3.85;1.50;;;;;;;20.82;47.20;103099.16;4994605;28;20026;-60
2021/10/08 08:17:12;;;;;;;3.38;1.42;;;;;;;20.81;47.57;103098.31;4994863;28;20152;-60
2021/10/08 08:19:38;;;;;;;3.80;1.67;;;;;;;20.82;47.32;103107.09;4995334;28;20069;-61
2021/10/08 08:22:03;;;;;;;3.22;1.45;;;;;;;20.82;47.36;103096.50;4994518;28;20360;-60
2021/10/08 08:24:30;;;;;;;3.63;1.50;;;;;;;20.84;47.36;103089.34;4995153;28;20482;-61
2021/10/08 08:26:58;;;;;;;2.95;1.30;;;;;;;20.85;47.30;103091.03;4995276;28;20033;-61
2021/10/08 08:29:24;;;;;;;3.60;1.40;;;;;;;20.86;47.22;103092.75;4993709;28;20474;-60
2021/10/08 08:31:50;;;;;;;3.17;1.45;;;;;;;20.86;47.47;103091.91;4995497;28;20045;-61
2021/10/08 08:34:15;;;;;;;3.50;1.70;;;;;;;20.85;47.18;103096.31;4993238;28;20027;-60
2021/10/08 08:36:43;;;;;;;2.87;1.23;;;;;;;20.86;47.33;103097.19;4993794;28;20278;-61
2021/10/08 08:39:10;;;;;;;4.25;1.45;;;;;;;20.87;47.36;103094.47;4994549;28;20295;-61
2021/10/08 08:41:36;;;;;;;3.50;1.45;;;;;;;20.87;47.23;103089.16;4994105;28;20053;-61
2021/10/08 08:44:04;;;;;;;3.72;1.48;;;;;;;20.87;47.44;103093.59;4994509;28;20053;-61
2021/10/08 08:46:30;;;;;;;3.13;1.65;;;;;;;20.87;47.28;103094.47;4994997;28;20034;-61
2021/10/08 08:48:56;;;;;;;2.95;1.55;;;;;;;20.88;47.34;103088.19;4994558;28;20058;-62
2021/10/08 08:51:25;;;;;;;2.88;1.38;;;;;;;20.88;47.37;103097.97;4993933;28;20335;-63
2021/10/08 08:53:52;;;;;;;3.80;1.50;;;;;;;20.88;47.57;103090.00;4995880;28;20038;-60
2021/10/08 08:56:17;;;;;;;3.58;1.73;;;;;;;20.97;47.33;103094.78;4994771;28;20371;-60
2021/10/08 08:58:43;;;;;;;3.20;1.60;;;;;;;21.05;47.13;103095.19;4995695;28;20049;-61
2021/10/08 09:01:08;;;;;;;3.70;2.00;;;;;;;21.12;46.95;103093.84;4995680;28;20396;-61
2021/10/08 09:03:33;;;;;;;4.20;1.88;;;;;;;21.20;47.04;103099.59;4995688;28;20640;-60
2021/10/08 09:05:59;;;;;;;3.85;1.95;;;;;;;21.23;47.00;103092.41;4994712;28;20030;-62
2021/10/08 09:08:34;;;;;;;3.30;1.70;;;;;;;21.22;46.80;103096.84;4994730;28;20466;-61
2021/10/08 09:11:02;;;;;;;3.15;1.92;;;;;;;21.27;46.76;103099.19;4994784;28;20398;-61
2021/10/08 09:13:28;;;;;;;4.00;1.70;;;;;;;21.23;46.93;103105.66;4994967;28;20043;-61
2021/10/08 09:15:59;;;;;;;4.28;1.67;;;;;;;21.20;46.90;103096.06;4996636;28;20129;-61
2021/10/08 09:18:27;;;;;;;3.15;1.60;;;;;;;21.18;46.94;103096.16;4996914;28;20027;-61
2021/10/08 09:21:15;;;;;;;5.47;1.90;;;;;;;21.14;46.98;103104.38;4997129;28;20061;-60
2021/10/08 09:23:46;;;;;;;5.13;1.73;;;;;;;21.16;47.09;103102.50;4995559;28;20019;-62
2021/10/08 09:26:18;;;;;;;4.15;2.15;;;;;;;21.13;47.11;103094.75;4993747;28;20117;-61
2021/10/08 09:29:01;;;;;;;3.53;1.77;;;;;;;21.07;47.36;103095.94;4994355;28;20022;-60
2021/10/08 09:31:35;;;;;;;3.87;2.00;;;;;;;21.04;47.53;103097.91;4993683;28;20494;-60
2021/10/08 09:34:11;;;;;;;3.78;1.90;;;;;;;21.00;47.59;103099.91;4993335;28;20334;-60
2021/10/08 09:36:37;;;;;;;4.78;2.05;;;;;;;20.96;47.62;103101.00;4994177;28;20037;-61
2021/10/08 09:39:19;;;;;;;4.15;1.92;;;;;;;20.92;47.74;103097.69;4993593;28;20105;-60
2021/10/08 09:41:54;;;;;;;3.85;1.90;;;;;;;20.90;47.89;103096.06;4994139;28;20041;-60
2021/10/08 09:44:36;;;;;;;3.53;1.83;;;;;;;20.90;47.78;103094.25;4993859;28;20039;-60
2021/10/08 09:47:13;;;;;;;3.83;2.03;;;;;;;20.92;48.11;103096.81;4993014;28;20034;-59
2021/10/08 09:49:39;;;;;;;3.97;2.00;;;;;;;20.94;48.11;103089.66;4993504;28;20462;-60
2021/10/08 09:52:24;;;;;;;3.67;2.03;;;;;;;20.96;48.17;103099.22;4993242;28;20038;-61
2021/10/08 09:55:01;;;;;;;5.20;1.95;;;;;;;21.03;47.86;103102.38;4994156;28;20054;-62
2021/10/08 09:57:46;;;;;;;5.88;2.78;;;;;;;21.07;47.77;103095.94;4994742;28;20510;-62
2021/10/08 10:00:38;;;;;;;5.93;2.35;;;;;;;21.11;47.48;103092.19;4993653;28;20049;-62
2021/10/08 10:03:04;;;;;;;3.92;2.10;;;;;;;21.14;47.70;103094.66;4993762;28;20043;-62
2021/10/08 10:05:30;;;;;;;4.95;3.05;;;;;;;21.14;47.83;103088.47;4993773;28;20022;-61
2021/10/08 10:07:56;;;;;;;5.93;2.78;;;;;;;21.18;47.63;103088.19;4993783;28;20026;-61
2021/10/08 10:10:22;;;;;;;4.95;2.92;;;;;;;21.25;47.40;103085.19;4993581;28;20121;-61
2021/10/08 10:12:48;;;;;;;4.90;2.95;;;;;;;21.30;47.47;103081.34;4993670;28;20026;-62
2021/10/08 10:15:16;;;;;;;4.85;2.42;;;;;;;21.30;47.09;103085.75;4992388;28;20038;-61
2021/10/08 10:17:43;;;;;;;7.07;3.60;;;;;;;21.26;47.02;103087.75;4993638;28;20026;-61
2021/10/08 10:20:09;;;;;;;6.35;3.80;;;;;;;21.21;47.25;103089.81;4993215;28;20092;-61
2021/10/08 10:22:38;;;;;;;6.05;3.47;;;;;;;21.20;47.58;103088.97;4992892;28;20065;-62
2021/10/08 10:25:06;;;;;;;5.03;3.00;;;;;;;21.17;47.72;103088.28;4992299;28;20185;-62
2021/10/08 10:27:34;;;;;;;5.10;2.97;;;;;;;21.14;47.87;103080.50;4993375;28;20054;-61
2021/10/08 10:30:01;;;;;;;6.35;3.63;;;;;;;21.14;47.92;103080.50;4993167;28;20026;-60
2021/10/08 10:32:26;;;;;;;5.88;3.47;;;;;;;21.15;47.90;103090.19;4993252;28;20050;-61
2021/10/08 10:34:52;;;;;;;6.68;3.58;;;;;;;21.13;48.04;103086.78;4993198;28;20033;-62
2021/10/08 10:37:39;;;;;;;6.43;3.58;;;;;;;21.10;47.66;103084.31;4992173;28;20029;-62
2021/10/08 10:40:25;;;;;;;7.97;4.13;;;;;;;21.08;47.74;103079.09;4992893;28;20046;-61
2021/10/08 10:43:13;;;;;;;7.63;3.92;;;;;;;21.06;47.90;103085.41;4992233;28;20030;-62
2021/10/08 10:45:42;;;;;;;6.65;4.15;;;;;;;21.04;48.05;103080.22;4993309;28;20451;-61
2021/10/08 10:48:22;;;;;;;8.07;5.38;;;;;;;21.01;47.76;103083.91;4992881;28;20393;-61
2021/10/08 10:51:11;;;;;;;7.53;4.78;;;;;;;21.05;48.17;103081.94;4994173;28;20049;-60
2021/10/08 10:53:53;;;;;;;8.23;4.90;;;;;;;21.11;48.22;103076.25;4994206;28;20109;-61
2021/10/08 10:56:41;;;;;;;7.70;4.50;;;;;;;21.15;47.80;103072.47;4993465;28;20065;-60
2021/10/08 10:59:21;;;;;;;7.45;4.25;;;;;;;21.19;47.89;103073.16;4992326;28;20108;-61
2021/10/08 11:02:08;;;;;;;8.32;4.18;;;;;;;21.24;47.88;103072.88;4992819;28;20044;-64
2021/10/08 11:04:39;;;;;;;7.70;4.53;;;;;;;21.27;47.70;103070.91;4992044;28;20110;-62
2021/10/08 11:07:08;;;;;;;8.98;4.57;;;;;;;21.30;48.20;103064.53;4991653;28;20042;-61
2021/10/08 11:09:35;;;;;;;8.93;4.32;;;;;;;21.34;47.78;103058.97;4992607;28;20482;-63
2021/10/08 11:12:36;;;;;;;6.55;4.55;;;;;;;21.40;47.68;103067.53;4992126;28;20491;-63
2021/10/08 11:15:20;;;;;;;6.60;4.32;;;;;;;21.40;47.92;103056.91;4992694;28;20461;-62
2021/10/08 11:17:48;;;;;;;7.20;4.70;;;;;;;21.36;47.88;103054.44;4991846;28;20038;-62
2021/10/08 11:20:41;;;;;;;6.80;4.45;;;;;;;21.36;47.97;103050.91;4995916;28;20509;-61
2021/10/08 11:23:08;;;;;;;6.90;4.30;;;;;;;21.35;48.01;103057.19;4995975;28;20053;-61
2021/10/08 11:25:45;;;;;;;8.88;5.70;;;;;;;21.34;47.72;103053.66;4995614;28;20038;-62
2021/10/08 11:28:11;;;;;;;9.63;5.90;;;;;;;21.35;47.84;103041.28;4995998;28;20026;-60
2021/10/08 11:30:36;;;;;;;7.78;5.53;;;;;;;21.32;47.95;103042.31;4996109;28;20026;-60
2021/10/08 11:33:02;;;;;;;7.03;4.60;;;;;;;21.28;48.38;103047.88;4995387;28;20042;-60